createdAt,value
2023-02-28T00:00:00.542Z,3.75
2023-02-28T00:10:41.494Z,3.40
2023-02-28T00:21:02.717Z,3.33
2023-02-28T00:31:23.881Z,3.28
2023-02-28T00:41:45.034Z,3.80
2023-02-28T00:52:06.661Z,3.47
2023-02-28T01:02:27.629Z,3.47
2023-02-28T01:12:48.628Z,3.60
2023-02-28T01:23:10.803Z,3.85
2023-02-28T01:33:32.974Z,4.07
2023-02-28T01:43:58.840Z,3.72
2023-02-28T01:54:29.293Z,3.50
2023-02-28T02:05:02.805Z,3.83
2023-02-28T02:15:48.298Z,3.72
2023-02-28T02:26:18.972Z,3.60
2023-02-28T02:36:41.619Z,3.88
2023-02-28T02:47:09.891Z,3.97
2023-02-28T02:57:36.897Z,3.65
2023-02-28T03:07:58.180Z,4.00
2023-02-28T03:19:02.373Z,3.80
2023-02-28T03:29:31.131Z,3.97
2023-02-28T03:40:00.422Z,3.40
2023-02-28T03:50:37.374Z,3.70
2023-02-28T04:01:16.956Z,4.03
2023-02-28T04:11:40.468Z,3.80
2023-02-28T04:22:01.811Z,3.92
2023-02-28T04:32:23.299Z,3.65
2023-02-28T04:42:44.652Z,3.78
2023-02-28T04:53:05.797Z,4.22
2023-02-28T05:03:28.077Z,4.20
2023-02-28T05:13:50.043Z,3.95
2023-02-28T05:24:13.271Z,3.90
2023-02-28T05:34:34.602Z,4.18
2023-02-28T05:44:55.848Z,4.20
2023-02-28T05:55:17.063Z,3.60
2023-02-28T06:05:39.699Z,4.00
2023-02-28T06:16:04.016Z,3.67
2023-02-28T06:26:25.343Z,4.15
2023-02-28T06:36:46.412Z,4.40
2023-02-28T06:47:07.899Z,5.15
2023-02-28T06:57:32.078Z,4.63
2023-02-28T07:07:54.085Z,4.30
2023-02-28T07:18:15.047Z,4.80
2023-02-28T07:28:35.974Z,4.35
2023-02-28T07:38:56.909Z,4.43
2023-02-28T07:49:18.369Z,4.47
2023-02-28T07:59:40.976Z,5.18
2023-02-28T08:10:02.501Z,4.88
2023-02-28T08:20:24.916Z,4.78
2023-02-28T08:30:46.381Z,4.65
2023-02-28T08:41:11.145Z,4.85
2023-02-28T08:51:32.688Z,5.45
2023-02-28T09:01:54.122Z,4.95
2023-02-28T09:12:15.074Z,5.35
2023-02-28T09:22:36.624Z,5.30
2023-02-28T09:32:58.035Z,5.03
2023-02-28T09:43:22.860Z,5.57
2023-02-28T09:53:47.895Z,5.50
2023-02-28T10:04:36.622Z,5.40
2023-02-28T10:15:00.005Z,5.03
2023-02-28T10:25:27.981Z,5.80
2023-02-28T10:35:50.025Z,5.18
2023-02-28T10:46:11.315Z,4.63
2023-02-28T10:56:34.301Z,6.20
2023-02-28T11:07:22.165Z,4.95
2023-02-28T11:17:46.024Z,5.15
2023-02-28T11:28:27.783Z,5.38
2023-02-28T11:38:50.793Z,5.47
2023-02-28T11:49:32.619Z,5.13
2023-02-28T12:00:06.113Z,5.07
2023-02-28T12:10:58.312Z,5.35
2023-02-28T12:21:52.699Z,5.53
2023-02-28T12:32:28.435Z,5.20
2023-02-28T12:43:04.928Z,5.43
2023-02-28T12:53:35.330Z,5.60
2023-02-28T13:04:18.306Z,6.05
2023-02-28T13:14:39.984Z,5.93
2023-02-28T13:25:01.377Z,5.40
2023-02-28T13:35:46.196Z,5.22
2023-02-28T13:46:13.420Z,6.15
2023-02-28T14:07:03.752Z,5.18
2023-02-28T14:17:26.367Z,5.63
2023-02-28T14:28:19.457Z,5.75
2023-02-28T14:38:47.215Z,5.70
2023-02-28T14:49:34.278Z,5.82
2023-02-28T15:00:05.632Z,6.47
2023-02-28T15:10:29.031Z,6.00
2023-02-28T15:20:51.873Z,5.65
2023-02-28T15:31:26.982Z,5.82
2023-02-28T15:41:48.149Z,5.47
2023-02-28T15:52:14.356Z,6.60
2023-02-28T16:02:38.302Z,5.83
2023-02-28T16:12:59.822Z,5.78
2023-02-28T16:23:21.028Z,5.30
2023-02-28T16:33:42.203Z,5.72
2023-02-28T16:44:03.907Z,5.50
2023-02-28T16:54:24.961Z,5.68
2023-02-28T17:04:47.219Z,5.30
2023-02-28T17:15:10.224Z,6.30
2023-02-28T17:25:31.621Z,6.35
2023-02-28T17:35:52.739Z,5.88
2023-02-28T17:46:21.580Z,5.80
2023-02-28T17:56:45.778Z,6.05
2023-02-28T18:07:09.355Z,6.10
2023-02-28T18:17:30.532Z,5.43
2023-02-28T18:27:58.391Z,5.65
2023-02-28T18:38:21.308Z,6.78
2023-02-28T18:48:43.080Z,6.78
2023-02-28T18:59:04.526Z,6.07
2023-02-28T19:09:25.576Z,6.65
2023-02-28T19:19:46.795Z,6.22
2023-02-28T19:30:08.900Z,7.38
2023-02-28T19:40:29.988Z,6.50
2023-02-28T19:50:51.846Z,6.60
2023-02-28T20:01:18.402Z,6.88
2023-02-28T20:11:39.992Z,7.18
2023-02-28T20:22:02.904Z,7.32
2023-02-28T20:32:24.139Z,6.78
2023-02-28T20:42:45.285Z,7.15
2023-02-28T20:53:07.062Z,7.35
2023-02-28T21:03:29.413Z,6.95
2023-02-28T21:13:54.569Z,7.75
2023-02-28T21:24:18.392Z,7.78
2023-02-28T21:34:39.521Z,8.23
2023-02-28T21:45:01.940Z,7.72
2023-02-28T21:55:22.863Z,7.85
2023-02-28T22:05:43.818Z,8.98
2023-02-28T22:16:06.750Z,8.65
2023-02-28T22:26:28.955Z,9.32
2023-02-28T22:36:50.776Z,8.70
2023-02-28T22:47:11.824Z,10.10
2023-02-28T22:57:33.085Z,9.45
2023-02-28T23:07:54.202Z,9.18
2023-02-28T23:18:15.939Z,9.25
2023-02-28T23:28:37.096Z,9.10
2023-02-28T23:38:58.236Z,9.20
2023-02-28T23:49:20.590Z,9.05
2023-02-28T23:59:41.492Z,8.95
